| time (UTC) | temp F | wind direction | speed MPH | gust MPH | rain 1hr in | rain 24hr in | rain mn in | humidity % | barometer mb |
| 20260504001516 | 64 | 210 | 12.0 | 13.0 | 0.00 | 0.00 | 0.00 | 37 | 1008.2 |
| 20260504001039 | 64 | 183 | 5.0 | 12.0 | 0.00 | 0.00 | 0.00 | 37 | 1008.2 |
| 20260504000508 | 64 | 225 | 6.0 | 13.0 | 0.00 | 0.00 | 0.00 | 36 | 1008.2 |
| 20260503235016 | 65 | 192 | 11.0 | 17.0 | 0.00 | 0.00 | 0.00 | 36 | 1008.2 |
| 20260503234546 | 65 | 247 | 8.0 | 17.0 | 0.00 | 0.00 | 0.00 | 36 | 1008.2 |
| 20260503233509 | 65 | 201 | 8.0 | 17.0 | 0.00 | 0.00 | 0.00 | 36 | 1008.2 |
| 20260503225037 | 65 | 172 | 6.0 | 13.0 | 0.00 | 0.00 | 0.00 | 36 | 1009.2 |
| 20260503222540 | 66 | 229 | 8.0 | 15.0 | 0.00 | 0.00 | 0.00 | 35 | 1009.2 |
| 20260503221507 | 66 | 172 | 11.0 | 20.0 | 0.00 | 0.00 | 0.00 | 35 | 1009.2 |
| 20260503215506 | 67 | 177 | 9.0 | 15.0 | 0.00 | 0.00 | 0.00 | 35 | 1009.2 |
| 20260503215037 | 67 | 221 | 14.0 | 17.0 | 0.00 | 0.00 | 0.00 | 35 | 1009.2 |
| 20260503214038 | 65 | 229 | 9.0 | 15.0 | 0.00 | 0.00 | 0.00 | 36 | 1009.2 |
| 20260503212039 | 64 | 181 | 9.0 | 13.0 | 0.00 | 0.00 | 0.00 | 37 | 1009.2 |
| 20260503211505 | 63 | 177 | 5.0 | 13.0 | 0.00 | 0.00 | 0.00 | 37 | 1009.2 |
| 20260503210536 | 62 | 179 | 11.0 | 17.0 | 0.00 | 0.00 | 0.00 | 38 | 1009.2 |
| 20260503205541 | 62 | 178 | 8.0 | 20.0 | 0.00 | 0.00 | 0.00 | 37 | 1009.2 |
| 20260503204536 | 62 | 198 | 12.0 | 20.0 | 0.00 | 0.00 | 0.00 | 37 | 1009.2 |
| 20260503202535 | 62 | 207 | 3.0 | 15.0 | 0.00 | 0.00 | 0.00 | 38 | 1010.2 |
| 20260503201006 | 61 | 187 | 6.0 | 20.0 | 0.00 | 0.00 | 0.00 | 38 | 1011.2 |
| 20260503200004 | 61 | 218 | 16.0 | 16.0 | 0.00 | 0.00 | 0.00 | 37 | 1011.2 |
| 20260503195504 | 61 | 230 | 8.0 | 17.0 | 0.00 | 0.00 | 0.00 | 38 | 1011.2 |
| 20260503194509 | 61 | 223 | 13.0 | 17.0 | 0.00 | 0.00 | 0.00 | 38 | 1011.2 |
| 20260503194009 | 61 | 159 | 15.0 | 17.0 | 0.00 | 0.00 | 0.00 | 38 | 1012.2 |
| 20260503193504 | 61 | 218 | 13.0 | 17.0 | 0.00 | 0.00 | 0.00 | 37 | 1012.2 |
| 20260503193034 | 61 | 211 | 12.0 | 17.0 | 0.00 | 0.00 | 0.00 | 37 | 1012.2 |
| 20260503190503 | 60 | 268 | 7.0 | 13.0 | 0.00 | 0.00 | 0.00 | 37 | 1012.2 |
| 20260503190033 | 60 | 235 | 6.0 | 13.0 | 0.00 | 0.00 | 0.00 | 37 | 1012.2 |
| 20260503185533 | 61 | 176 | 9.0 | 15.0 | 0.00 | 0.00 | 0.00 | 37 | 1012.2 |
| 20260503184033 | 62 | 229 | 10.0 | 17.0 | 0.00 | 0.00 | 0.00 | 36 | 1012.2 |
| 20260503182534 | 63 | 188 | 13.0 | 19.0 | 0.00 | 0.00 | 0.00 | 36 | 1013.2 |
| 20260503181032 | 62 | 246 | 11.0 | 21.0 | 0.00 | 0.00 | 0.00 | 37 | 1013.2 |
| 20260503175033 | 63 | 176 | 9.0 | 19.0 | 0.00 | 0.00 | 0.00 | 37 | 1013.2 |
| 20260503172534 | 62 | 224 | 11.0 | 17.0 | 0.00 | 0.00 | 0.00 | 38 | 1014.2 |
| 20260503171542 | 62 | 176 | 11.0 | 18.0 | 0.00 | 0.00 | 0.00 | 38 | 1014.2 |
| 20260503171032 | 61 | 207 | 15.0 | 20.0 | 0.00 | 0.00 | 0.00 | 38 | 1014.2 |
| 20260503150529 | 56 | 222 | 17.0 | 17.0 | 0.00 | 0.00 | 0.00 | 47 | 1016.2 |
| 20260503130527 | 50 | 196 | 6.0 | 13.0 | 0.00 | 0.00 | 0.00 | 58 | 1016.2 |
| 20260503110525 | 43 | 153 | 3.0 | 9.0 | 0.00 | 0.00 | 0.00 | 54 | 1016.2 |
| 20260503081022 | 43 | 241 | 6.0 | 8.0 | 0.00 | 0.00 | 0.00 | 50 | 1016.2 |
| 20260503072521 | 44 | 178 | 3.0 | 7.0 | 0.00 | 0.00 | 0.00 | 50 | 1016.2 |
| 20260503072022 | 44 | 176 | 6.0 | 7.0 | 0.00 | 0.00 | 0.00 | 50 | 1016.2 |
| 20260503071521 | 44 | 174 | 5.0 | 6.0 | 0.00 | 0.00 | 0.00 | 50 | 1016.2 |
| 20260503071021 | 44 | 228 | 5.0 | 8.0 | 0.00 | 0.00 | 0.00 | 50 | 1016.2 |
| 20260503070521 | 44 | 206 | 5.0 | 8.0 | 0.00 | 0.00 | 0.00 | 50 | 1016.2 |
| 20260503055020 | 45 | 149 | 4.0 | 8.0 | 0.00 | 0.00 | 0.00 | 46 | 1017.2 |
| 20260503054020 | 46 | 181 | 5.0 | 6.0 | 0.00 | 0.00 | 0.00 | 46 | 1017.2 |
| 20260503053520 | 46 | 191 | 6.0 | 6.0 | 0.00 | 0.00 | 0.00 | 45 | 1017.2 |
| 20260503053020 | 46 | 139 | 3.0 | 8.0 | 0.00 | 0.00 | 0.00 | 45 | 1017.2 |
| 20260503052520 | 46 | 155 | 5.0 | 8.0 | 0.00 | 0.00 | 0.00 | 45 | 1017.2 |
| 20260503052020 | 46 | 183 | 6.0 | 6.0 | 0.00 | 0.00 | 0.00 | 45 | 1017.2 |
| 20260503051020 | 46 | 166 | 3.0 | 6.0 | 0.00 | 0.00 | 0.00 | 45 | 1017.2 |
| 20260503050019 | 46 | 168 | 0.0 | 6.0 | 0.00 | 0.00 | 0.00 | 45 | 1017.2 |
| 20260503045519 | 46 | 198 | 3.0 | 6.0 | 0.00 | 0.00 | 0.00 | 45 | 1017.2 |
| 20260503045019 | 46 | 190 | 3.0 | 4.0 | 0.00 | 0.00 | 0.00 | 45 | 1017.2 |
| 20260503044519 | 47 | 182 | 0.0 | 5.0 | 0.00 | 0.00 | 0.00 | 44 | 1017.2 |
| 20260503044019 | 47 | 159 | 2.0 | 5.0 | 0.00 | 0.00 | 0.00 | 44 | 1017.2 |
| 20260503043519 | 47 | 158 | 3.0 | 5.0 | 0.00 | 0.00 | 0.00 | 44 | 1017.2 |
| 20260503043019 | 47 | 204 | 5.0 | 5.0 | 0.00 | 0.00 | 0.00 | 44 | 1017.2 |
| 20260503042519 | 47 | 154 | 3.0 | 4.0 | 0.00 | 0.00 | 0.00 | 44 | 1017.2 |
| 20260503042019 | 47 | 157 | 4.0 | 4.0 | 0.00 | 0.00 | 0.00 | 45 | 1017.2 |
| 20260503041519 | 47 | 185 | 3.0 | 4.0 | 0.00 | 0.00 | 0.00 | 45 | 1017.2 |
| 20260503041018 | 47 | 175 | 3.0 | 4.0 | 0.00 | 0.00 | 0.00 | 45 | 1017.2 |
| 20260503040020 | 47 | 151 | 2.0 | 6.0 | 0.00 | 0.01 | 0.00 | 44 | 1017.2 |
| 20260503035519 | 47 | 161 | 3.0 | 6.0 | 0.00 | 0.02 | 0.00 | 45 | 1017.2 |
| 20260503035018 | 46 | 167 | 4.0 | 5.0 | 0.00 | 0.02 | 0.00 | 46 | 1017.2 |
| 20260503034518 | 46 | 185 | 0.0 | 4.0 | 0.00 | 0.02 | 0.00 | 46 | 1017.2 |
| 20260503034018 | 47 | 200 | 0.0 | 4.0 | 0.00 | 0.02 | 0.00 | 45 | 1017.2 |
| 20260503033518 | 47 | 185 | 2.0 | 3.0 | 0.00 | 0.02 | 0.00 | 45 | 1017.2 |
| 20260503033018 | 46 | 190 | 0.0 | 0.0 | 0.00 | 0.02 | 0.00 | 46 | 1017.2 |
| 20260503032518 | 46 | 189 | 0.0 | 0.0 | 0.00 | 0.02 | 0.00 | 46 | 1017.2 |
| 20260503032018 | 46 | 192 | 0.0 | 0.0 | 0.00 | 0.02 | 0.00 | 45 | 1017.2 |
| 20260503031517 | 46 | 192 | 0.0 | 4.0 | 0.00 | 0.02 | 0.00 | 45 | 1017.2 |
| 20260503031018 | 46 | 200 | 0.0 | 4.0 | 0.00 | 0.02 | 0.00 | 44 | 1017.2 |
| 20260503030518 | 46 | 190 | 3.0 | 4.0 | 0.00 | 0.02 | 0.00 | 43 | 1017.2 |
| 20260503030020 | 46 | 198 | 0.0 | 2.0 | 0.00 | 0.02 | 0.00 | 42 | 1017.2 |
| 20260503025517 | 47 | 198 | 0.0 | 5.0 | 0.00 | 0.02 | 0.00 | 42 | 1017.2 |
| 20260503024518 | 47 | 357 | 0.0 | 0.0 | 0.00 | 0.02 | 0.00 | 41 | 1017.2 |
| 20260503024018 | 47 | 357 | 0.0 | 0.0 | 0.00 | 0.02 | 0.00 | 41 | 1017.2 |
| 20260503023517 | 47 | 357 | 0.0 | 0.0 | 0.00 | 0.02 | 0.00 | 41 | 1017.2 |
| 20260503023019 | 47 | 357 | 0.0 | 0.0 | 0.00 | 0.02 | 0.00 | 41 | 1017.2 |
| 20260503022017 | 47 | 357 | 0.0 | 0.0 | 0.00 | 0.02 | 0.00 | 41 | 1017.2 |
| 20260503021517 | 48 | 357 | 0.0 | 0.0 | 0.00 | 0.02 | 0.00 | 41 | 1017.2 |
| 20260503021020 | 48 | 357 | 0.0 | 0.0 | 0.00 | 0.02 | 0.00 | 41 | 1017.2 |
| 20260503020518 | 48 | 357 | 0.0 | 0.0 | 0.00 | 0.02 | 0.00 | 41 | 1017.2 |
| 20260503015016 | 49 | 357 | 0.0 | 0.0 | 0.00 | 0.02 | 0.00 | 40 | 1017.2 |
| 20260503014018 | 49 | 357 | 0.0 | 0.0 | 0.00 | 0.02 | 0.00 | 40 | 1016.2 |
| 20260503013517 | 50 | 357 | 0.0 | 0.0 | 0.00 | 0.02 | 0.00 | 40 | 1016.2 |
| 20260503013022 | 50 | 357 | 0.0 | 0.0 | 0.00 | 0.02 | 0.00 | 40 | 1016.2 |
| 20260503012516 | 50 | 357 | 0.0 | 0.0 | 0.00 | 0.02 | 0.00 | 39 | 1017.2 |
| 20260503012016 | 50 | 357 | 0.0 | 0.0 | 0.00 | 0.02 | 0.00 | 39 | 1017.2 |
| 20260503011515 | 51 | 357 | 0.0 | 0.0 | 0.00 | 0.02 | 0.00 | 39 | 1017.2 |
| 20260503011015 | 51 | 357 | 0.0 | 0.0 | 0.00 | 0.02 | 0.00 | 38 | 1016.2 |
| 20260503010516 | 51 | 357 | 0.0 | 0.0 | 0.00 | 0.02 | 0.00 | 38 | 1016.2 |
| 20260503010016 | 52 | 357 | 0.0 | 0.0 | 0.00 | 0.02 | 0.00 | 37 | 1016.2 |
| 20260503005515 | 52 | 357 | 0.0 | 0.0 | 0.00 | 0.02 | 0.00 | 37 | 1016.2 |
| 20260503005015 | 53 | 357 | 0.0 | 0.0 | 0.00 | 0.02 | 0.00 | 36 | 1016.2 |
| 20260503004515 | 53 | 357 | 0.0 | 0.0 | 0.00 | 0.02 | 0.00 | 35 | 1016.2 |
| 20260503004015 | 54 | 357 | 0.0 | 3.0 | 0.00 | 0.02 | 0.00 | 34 | 1016.2 |
| 20260503003515 | 54 | 357 | 0.0 | 3.0 | 0.00 | 0.02 | 0.00 | 33 | 1016.2 |
| 20260503002515 | 55 | 0 | 0.0 | 6.0 | 0.00 | 0.02 | 0.00 | 31 | 1016.2 |